sensor_id;sensor_type;location;lat;lon;timestamp;pressure;altitude;pressure_sealevel;temperature;humidity
75668;BME280;64266;48.798;44.756;2023-03-01T00:00:04;101422.16;;;1.27;61.21
75668;BME280;64266;48.798;44.756;2023-03-01T00:05:12;101412.28;;;1.21;62.04
75668;BME280;64266;48.798;44.756;2023-03-01T00:10:16;101412.00;;;1.15;61.93
75668;BME280;64266;48.798;44.756;2023-03-01T00:15:18;101409.28;;;1.06;63.36
75668;BME280;64266;48.798;44.756;2023-03-01T00:20:21;101436.06;;;1.18;62.28
75668;BME280;64266;48.798;44.756;2023-03-01T00:25:24;101392.25;;;0.93;62.27
75668;BME280;64266;48.798;44.756;2023-03-01T00:30:27;101398.97;;;0.95;61.59
75668;BME280;64266;48.798;44.756;2023-03-01T00:35:32;101390.44;;;1.03;62.69
75668;BME280;64266;48.798;44.756;2023-03-01T00:40:35;101398.00;;;1.06;61.65
75668;BME280;64266;48.798;44.756;2023-03-01T00:45:39;101399.78;;;1.05;62.33
75668;BME280;64266;48.798;44.756;2023-03-01T00:50:43;101359.31;;;0.82;62.38
75668;BME280;64266;48.798;44.756;2023-03-01T00:55:46;101353.50;;;0.98;61.38
75668;BME280;64266;48.798;44.756;2023-03-01T01:00:49;101381.19;;;1.28;61.60
75668;BME280;64266;48.798;44.756;2023-03-01T01:05:52;101397.13;;;1.34;60.99
75668;BME280;64266;48.798;44.756;2023-03-01T01:10:55;101375.88;;;1.10;61.81
75668;BME280;64266;48.798;44.756;2023-03-01T01:16:01;101402.75;;;1.30;61.42
75668;BME280;64266;48.798;44.756;2023-03-01T01:21:06;101355.13;;;0.99;60.83
75668;BME280;64266;48.798;44.756;2023-03-01T01:26:18;101260.44;;;0.41;60.75
75668;BME280;64266;48.798;44.756;2023-03-01T01:31:23;101350.63;;;0.91;61.88
75668;BME280;64266;48.798;44.756;2023-03-01T01:36:26;101295.03;;;0.52;60.89
75668;BME280;64266;48.798;44.756;2023-03-01T01:41:31;101267.44;;;0.40;60.99
75668;BME280;64266;48.798;44.756;2023-03-01T01:46:37;101372.16;;;1.13;60.98
75668;BME280;64266;48.798;44.756;2023-03-01T01:51:44;101341.78;;;1.02;60.47
75668;BME280;64266;48.798;44.756;2023-03-01T01:56:52;101345.38;;;1.11;61.07
75668;BME280;64266;48.798;44.756;2023-03-01T02:01:59;101315.88;;;0.81;61.12
75668;BME280;64266;48.798;44.756;2023-03-01T02:07:16;101351.03;;;0.96;60.01
75668;BME280;64266;48.798;44.756;2023-03-01T02:12:23;101291.81;;;0.87;60.85
75668;BME280;64266;48.798;44.756;2023-03-01T02:17:27;101305.03;;;0.86;60.16
75668;BME280;64266;48.798;44.756;2023-03-01T02:22:32;101331.69;;;0.80;60.80
75668;BME280;64266;48.798;44.756;2023-03-01T02:27:43;101293.13;;;0.54;60.51
75668;BME280;64266;48.798;44.756;2023-03-01T02:32:49;101331.41;;;0.83;61.90
75668;BME280;64266;48.798;44.756;2023-03-01T02:37:53;101263.50;;;0.36;61.19
75668;BME280;64266;48.798;44.756;2023-03-01T02:42:59;101307.38;;;0.70;61.42
75668;BME280;64266;48.798;44.756;2023-03-01T02:48:02;101288.97;;;0.62;60.81
75668;BME280;64266;48.798;44.756;2023-03-01T02:53:13;101274.59;;;0.48;61.02
75668;BME280;64266;48.798;44.756;2023-03-01T02:58:18;101322.22;;;0.79;61.25
75668;BME280;64266;48.798;44.756;2023-03-01T03:03:22;101316.31;;;0.77;61.36
75668;BME280;64266;48.798;44.756;2023-03-01T03:08:25;101306.44;;;0.71;61.21
75668;BME280;64266;48.798;44.756;2023-03-01T03:13:28;101307.25;;;0.62;61.04
75668;BME280;64266;48.798;44.756;2023-03-01T03:18:31;101278.72;;;0.41;61.61
75668;BME280;64266;48.798;44.756;2023-03-01T03:23:33;101297.50;;;0.64;60.68
75668;BME280;64266;48.798;44.756;2023-03-01T03:28:36;101303.28;;;0.58;60.46
75668;BME280;64266;48.798;44.756;2023-03-01T03:33:42;101266.91;;;0.46;60.98
75668;BME280;64266;48.798;44.756;2023-03-01T03:38:45;101254.41;;;0.50;61.78
75668;BME280;64266;48.798;44.756;2023-03-01T03:43:48;101223.09;;;0.40;61.67
75668;BME280;64266;48.798;44.756;2023-03-01T03:48:51;101102.06;;;-0.32;60.52
75668;BME280;64266;48.798;44.756;2023-03-01T03:53:53;101221.88;;;0.44;60.51
75668;BME280;64266;48.798;44.756;2023-03-01T03:58:56;101212.38;;;0.43;60.03
75668;BME280;64266;48.798;44.756;2023-03-01T04:03:58;101209.53;;;0.37;60.21
75668;BME280;64266;48.798;44.756;2023-03-01T04:09:06;101268.81;;;0.64;60.53
75668;BME280;64266;48.798;44.756;2023-03-01T04:14:09;101271.69;;;0.70;61.50
75668;BME280;64266;48.798;44.756;2023-03-01T04:19:12;101265.38;;;0.63;61.22
75668;BME280;64266;48.798;44.756;2023-03-01T04:24:17;101276.06;;;0.70;60.12
75668;BME280;64266;48.798;44.756;2023-03-01T04:29:20;101249.59;;;0.55;60.23
75668;BME280;64266;48.798;44.756;2023-03-01T04:34:23;101284.44;;;0.83;60.19
75668;BME280;64266;48.798;44.756;2023-03-01T04:39:25;101273.13;;;0.92;59.88
75668;BME280;64266;48.798;44.756;2023-03-01T04:44:29;101261.72;;;0.83;59.43
75668;BME280;64266;48.798;44.756;2023-03-01T04:49:32;101274.06;;;1.00;60.01
75668;BME280;64266;48.798;44.756;2023-03-01T04:54:35;101274.75;;;1.30;59.19
75668;BME280;64266;48.798;44.756;2023-03-01T04:59:38;101256.16;;;1.60;57.03
75668;BME280;64266;48.798;44.756;2023-03-01T05:04:41;101254.03;;;1.91;57.72
75668;BME280;64266;48.798;44.756;2023-03-01T05:09:48;101275.63;;;2.10;56.60
75668;BME280;64266;48.798;44.756;2023-03-01T05:14:54;101264.41;;;2.36;55.63
75668;BME280;64266;48.798;44.756;2023-03-01T05:19:57;101244.22;;;2.28;56.14
75668;BME280;64266;48.798;44.756;2023-03-01T05:25:02;101251.28;;;2.53;55.61
75668;BME280;64266;48.798;44.756;2023-03-01T05:30:07;101254.28;;;2.58;56.40
75668;BME280;64266;48.798;44.756;2023-03-01T05:35:17;101226.13;;;2.35;55.56
75668;BME280;64266;48.798;44.756;2023-03-01T05:40:23;101240.38;;;2.58;55.08
75668;BME280;64266;48.798;44.756;2023-03-01T05:45:32;101221.94;;;2.42;55.84
75668;BME280;64266;48.798;44.756;2023-03-01T05:50:43;101186.72;;;2.36;55.45
75668;BME280;64266;48.798;44.756;2023-03-01T05:55:47;101252.06;;;2.71;55.17
75668;BME280;64266;48.798;44.756;2023-03-01T06:00:51;101226.19;;;2.68;55.03
75668;BME280;64266;48.798;44.756;2023-03-01T06:05:57;101272.63;;;3.18;55.70
75668;BME280;64266;48.798;44.756;2023-03-01T06:11:01;101211.28;;;2.69;54.69
75668;BME280;64266;48.798;44.756;2023-03-01T06:16:07;101281.81;;;3.22;54.91
75668;BME280;64266;48.798;44.756;2023-03-01T06:21:16;101232.56;;;3.00;54.64
75668;BME280;64266;48.798;44.756;2023-03-01T06:26:24;101273.97;;;3.22;54.58
75668;BME280;64266;48.798;44.756;2023-03-01T06:31:28;101233.41;;;3.00;54.01
75668;BME280;64266;48.798;44.756;2023-03-01T06:36:48;101203.03;;;2.82;54.70
75668;BME280;64266;48.798;44.756;2023-03-01T06:41:52;101218.00;;;2.97;55.01
75668;BME280;64266;48.798;44.756;2023-03-01T06:46:56;101215.41;;;3.05;54.95
75668;BME280;64266;48.798;44.756;2023-03-01T06:52:00;101265.84;;;3.41;55.20
75668;BME280;64266;48.798;44.756;2023-03-01T06:57:05;101274.97;;;3.29;55.53
75668;BME280;64266;48.798;44.756;2023-03-01T07:02:12;101215.31;;;2.89;55.22
75668;BME280;64266;48.798;44.756;2023-03-01T07:07:17;101260.94;;;3.38;54.96
75668;BME280;64266;48.798;44.756;2023-03-01T07:12:47;101223.16;;;3.15;54.28
75668;BME280;64266;48.798;44.756;2023-03-01T07:17:50;101216.94;;;3.24;54.21
75668;BME280;64266;48.798;44.756;2023-03-01T07:23:21;101238.31;;;3.45;53.78
75668;BME280;64266;48.798;44.756;2023-03-01T07:28:38;101225.00;;;3.31;54.66
75668;BME280;64266;48.798;44.756;2023-03-01T07:33:42;101173.03;;;3.10;55.51
75668;BME280;64266;48.798;44.756;2023-03-01T07:38:54;101170.09;;;3.13;54.04
75668;BME280;64266;48.798;44.756;2023-03-01T07:44:02;101188.06;;;3.08;54.95
75668;BME280;64266;48.798;44.756;2023-03-01T07:49:14;101128.47;;;2.68;54.22
75668;BME280;64266;48.798;44.756;2023-03-01T07:54:17;101094.75;;;2.57;55.72
75668;BME280;64266;48.798;44.756;2023-03-01T07:59:21;101216.31;;;3.22;54.93
75668;BME280;64266;48.798;44.756;2023-03-01T08:04:50;101144.28;;;2.84;55.60
75668;BME280;64266;48.798;44.756;2023-03-01T08:10:20;101101.72;;;2.90;54.82
75668;BME280;64266;48.798;44.756;2023-03-01T08:15:27;101091.06;;;2.84;54.58
75668;BME280;64266;48.798;44.756;2023-03-01T08:20:32;101083.50;;;2.72;55.13
75668;BME280;64266;48.798;44.756;2023-03-01T08:25:38;101153.78;;;3.35;54.17
75668;BME280;64266;48.798;44.756;2023-03-01T08:30:52;101108.72;;;3.40;54.89
75668;BME280;64266;48.798;44.756;2023-03-01T08:36:10;101051.06;;;3.40;53.53
75668;BME280;64266;48.798;44.756;2023-03-01T08:41:37;101139.22;;;4.13;54.11
75668;BME280;64266;48.798;44.756;2023-03-01T08:46:45;100960.13;;;2.84;53.76
75668;BME280;64266;48.798;44.756;2023-03-01T08:52:07;101004.38;;;3.19;53.46
75668;BME280;64266;48.798;44.756;2023-03-01T08:57:23;101052.03;;;3.71;54.04
75668;BME280;64266;48.798;44.756;2023-03-01T09:02:50;100936.09;;;3.04;54.10
75668;BME280;64266;48.798;44.756;2023-03-01T09:07:56;100952.94;;;3.02;54.45
75668;BME280;64266;48.798;44.756;2023-03-01T09:13:01;100942.78;;;3.15;54.25
75668;BME280;64266;48.798;44.756;2023-03-01T09:18:05;101080.63;;;4.29;54.21
75668;BME280;64266;48.798;44.756;2023-03-01T09:23:10;101084.25;;;4.67;53.24
75668;BME280;64266;48.798;44.756;2023-03-01T09:28:44;101089.56;;;4.89;52.60
75668;BME280;64266;48.798;44.756;2023-03-01T09:33:49;101060.38;;;4.84;52.21
75668;BME280;64266;48.798;44.756;2023-03-01T09:38:53;101082.00;;;4.95;52.13
75668;BME280;64266;48.798;44.756;2023-03-01T09:44:03;101055.53;;;4.96;52.96
75668;BME280;64266;48.798;44.756;2023-03-01T09:49:25;101053.59;;;4.90;52.29
75668;BME280;64266;48.798;44.756;2023-03-01T09:54:40;101009.16;;;4.50;52.21
75668;BME280;64266;48.798;44.756;2023-03-01T10:00:07;101055.84;;;4.70;53.54
75668;BME280;64266;48.798;44.756;2023-03-01T10:10:34;101042.69;;;4.31;55.02
75668;BME280;64266;48.798;44.756;2023-03-01T10:16:01;101036.53;;;4.16;54.19
75668;BME280;64266;48.798;44.756;2023-03-01T10:21:15;101036.03;;;4.13;54.86
75668;BME280;64266;48.798;44.756;2023-03-01T10:31:46;101013.94;;;3.91;55.18
75668;BME280;64266;48.798;44.756;2023-03-01T10:36:57;101005.97;;;3.68;55.67
75668;BME280;64266;48.798;44.756;2023-03-01T10:42:05;100972.59;;;3.30;56.56
75668;BME280;64266;48.798;44.756;2023-03-01T10:47:24;100973.59;;;3.13;57.42
75668;BME280;64266;48.798;44.756;2023-03-01T10:52:34;101008.13;;;3.33;57.70
75668;BME280;64266;48.798;44.756;2023-03-01T10:57:39;100998.16;;;3.28;58.88
75668;BME280;64266;48.798;44.756;2023-03-01T11:02:50;100953.63;;;3.04;59.39
75668;BME280;64266;48.798;44.756;2023-03-01T11:07:58;100990.28;;;3.20;60.23
75668;BME280;64266;48.798;44.756;2023-03-01T11:13:29;100994.38;;;3.39;60.62
75668;BME280;64266;48.798;44.756;2023-03-01T11:18:35;100987.50;;;3.29;61.46
75668;BME280;64266;48.798;44.756;2023-03-01T11:23:50;101001.56;;;3.45;61.85
75668;BME280;64266;48.798;44.756;2023-03-01T11:28:55;101007.81;;;3.44;61.53
75668;BME280;64266;48.798;44.756;2023-03-01T11:34:07;101000.72;;;3.60;60.74
75668;BME280;64266;48.798;44.756;2023-03-01T11:44:42;100915.28;;;3.19;59.44
75668;BME280;64266;48.798;44.756;2023-03-01T12:00:23;101006.75;;;3.93;57.71
75668;BME280;64266;48.798;44.756;2023-03-01T12:05:49;100903.28;;;3.33;58.24
75668;BME280;64266;48.798;44.756;2023-03-01T12:11:16;100929.75;;;3.70;57.66
75668;BME280;64266;48.798;44.756;2023-03-01T12:38:41;100974.41;;;4.01;58.51
75668;BME280;64266;48.798;44.756;2023-03-01T12:44:03;100966.38;;;4.02;57.24
75668;BME280;64266;48.798;44.756;2023-03-01T12:50:03;100961.03;;;3.88;56.77
75668;BME280;64266;48.798;44.756;2023-03-01T12:55:37;100940.38;;;3.76;58.67
75668;BME280;64266;48.798;44.756;2023-03-01T13:11:21;100952.50;;;3.86;57.97
75668;BME280;64266;48.798;44.756;2023-03-01T13:21:33;100960.47;;;4.00;58.15
75668;BME280;64266;48.798;44.756;2023-03-01T13:32:27;100915.97;;;3.76;58.20
75668;BME280;64266;48.798;44.756;2023-03-01T13:37:45;100983.72;;;4.11;58.33
75668;BME280;64266;48.798;44.756;2023-03-01T13:42:53;100976.09;;;3.94;58.00
75668;BME280;64266;48.798;44.756;2023-03-01T13:48:11;100970.03;;;3.93;58.39
75668;BME280;64266;48.798;44.756;2023-03-01T13:53:20;101006.63;;;4.25;58.70
75668;BME280;64266;48.798;44.756;2023-03-01T13:58:31;100987.28;;;4.18;58.16
75668;BME280;64266;48.798;44.756;2023-03-01T14:03:42;100975.03;;;4.11;57.65
75668;BME280;64266;48.798;44.756;2023-03-01T14:08:48;100941.31;;;3.92;58.62
75668;BME280;64266;48.798;44.756;2023-03-01T14:19:34;101010.66;;;4.05;59.26
75668;BME280;64266;48.798;44.756;2023-03-01T14:24:43;101015.06;;;4.05;60.57
75668;BME280;64266;48.798;44.756;2023-03-01T14:30:02;101013.75;;;4.01;60.74
75668;BME280;64266;48.798;44.756;2023-03-01T14:35:28;101014.09;;;3.98;60.35
75668;BME280;64266;48.798;44.756;2023-03-01T14:40:35;100994.66;;;3.68;59.01
75668;BME280;64266;48.798;44.756;2023-03-01T14:45:38;101012.03;;;3.77;58.93
75668;BME280;64266;48.798;44.756;2023-03-01T14:50:44;100963.44;;;3.26;58.82
75668;BME280;64266;48.798;44.756;2023-03-01T14:55:52;101010.75;;;3.41;61.20
75668;BME280;64266;48.798;44.756;2023-03-01T15:00:58;100960.97;;;3.00;61.80
75668;BME280;64266;48.798;44.756;2023-03-01T15:06:02;101026.31;;;3.50;61.51
75668;BME280;64266;48.798;44.756;2023-03-01T15:11:24;101032.88;;;3.62;61.61
75668;BME280;64266;48.798;44.756;2023-03-01T15:16:34;101032.03;;;3.54;61.33
75668;BME280;64266;48.798;44.756;2023-03-01T15:21:50;101004.34;;;3.11;60.80
75668;BME280;64266;48.798;44.756;2023-03-01T15:26:55;101080.41;;;3.59;60.76
75668;BME280;64266;48.798;44.756;2023-03-01T15:37:39;101032.19;;;3.12;60.85
75668;BME280;64266;48.798;44.756;2023-03-01T15:42:42;101114.97;;;3.63;59.61
75668;BME280;64266;48.798;44.756;2023-03-01T15:47:52;101106.59;;;3.75;60.86
75668;BME280;64266;48.798;44.756;2023-03-01T15:52:57;101125.44;;;3.79;59.81
75668;BME280;64266;48.798;44.756;2023-03-01T15:58:04;101107.13;;;3.63;59.11
75668;BME280;64266;48.798;44.756;2023-03-01T16:03:10;101112.50;;;3.61;59.94
75668;BME280;64266;48.798;44.756;2023-03-01T16:08:14;101123.97;;;3.60;59.87
75668;BME280;64266;48.798;44.756;2023-03-01T16:13:17;101123.31;;;3.58;58.64
75668;BME280;64266;48.798;44.756;2023-03-01T16:18:21;101137.09;;;3.44;59.24
75668;BME280;64266;48.798;44.756;2023-03-01T16:23:25;101138.41;;;3.56;60.32
75668;BME280;64266;48.798;44.756;2023-03-01T16:28:28;101111.66;;;3.37;59.55
75668;BME280;64266;48.798;44.756;2023-03-01T16:33:31;101160.84;;;3.59;60.74
75668;BME280;64266;48.798;44.756;2023-03-01T16:38:35;101222.88;;;3.26;61.76
75668;BME280;64266;48.798;44.756;2023-03-01T16:43:37;101207.16;;;2.58;58.76
75668;BME280;64266;48.798;44.756;2023-03-01T16:48:41;101239.13;;;2.44;58.02
75668;BME280;64266;48.798;44.756;2023-03-01T16:53:44;101223.53;;;2.17;58.40
75668;BME280;64266;48.798;44.756;2023-03-01T16:58:48;101219.03;;;2.09;58.82
75668;BME280;64266;48.798;44.756;2023-03-01T17:03:51;101244.31;;;2.18;59.21
75668;BME280;64266;48.798;44.756;2023-03-01T17:08:54;101252.84;;;2.21;58.13
75668;BME280;64266;48.798;44.756;2023-03-01T17:13:57;101212.78;;;1.85;56.64
75668;BME280;64266;48.798;44.756;2023-03-01T17:18:59;101232.84;;;1.94;56.56
75668;BME280;64266;48.798;44.756;2023-03-01T17:24:02;101231.63;;;2.06;57.32
75668;BME280;64266;48.798;44.756;2023-03-01T17:29:05;101257.91;;;2.22;56.50
75668;BME280;64266;48.798;44.756;2023-03-01T17:34:07;101220.03;;;1.91;56.62
75668;BME280;64266;48.798;44.756;2023-03-01T17:39:10;101254.19;;;2.07;56.21
75668;BME280;64266;48.798;44.756;2023-03-01T17:44:13;101256.66;;;2.08;55.36
75668;BME280;64266;48.798;44.756;2023-03-01T17:49:17;101233.09;;;1.91;55.99
75668;BME280;64266;48.798;44.756;2023-03-01T17:54:19;101281.16;;;2.07;55.70
75668;BME280;64266;48.798;44.756;2023-03-01T17:59:22;101244.91;;;1.77;55.13
75668;BME280;64266;48.798;44.756;2023-03-01T18:04:24;101282.22;;;1.97;55.64
75668;BME280;64266;48.798;44.756;2023-03-01T18:09:26;101294.91;;;2.09;54.84
75668;BME280;64266;48.798;44.756;2023-03-01T18:14:29;101298.28;;;2.02;54.13
75668;BME280;64266;48.798;44.756;2023-03-01T18:19:35;101304.53;;;1.91;54.14
75668;BME280;64266;48.798;44.756;2023-03-01T18:24:38;101279.78;;;1.68;55.33
75668;BME280;64266;48.798;44.756;2023-03-01T18:29:40;101349.91;;;1.73;55.01
75668;BME280;64266;48.798;44.756;2023-03-01T18:34:43;101313.38;;;1.36;55.57
75668;BME280;64266;48.798;44.756;2023-03-01T18:39:50;101354.72;;;1.50;55.69
75668;BME280;64266;48.798;44.756;2023-03-01T18:44:53;101345.44;;;1.28;57.06
75668;BME280;64266;48.798;44.756;2023-03-01T18:49:56;101372.41;;;1.29;57.09
75668;BME280;64266;48.798;44.756;2023-03-01T18:54:58;101362.09;;;1.18;57.76
75668;BME280;64266;48.798;44.756;2023-03-01T19:00:03;101369.94;;;1.18;58.07
75668;BME280;64266;48.798;44.756;2023-03-01T19:05:06;101388.91;;;1.20;57.98
75668;BME280;64266;48.798;44.756;2023-03-01T19:10:09;101363.94;;;0.98;58.52
75668;BME280;64266;48.798;44.756;2023-03-01T19:15:13;101393.06;;;1.03;58.25
75668;BME280;64266;48.798;44.756;2023-03-01T19:20:17;101377.69;;;0.81;57.97
75668;BME280;64266;48.798;44.756;2023-03-01T19:25:19;101384.47;;;0.74;58.44
75668;BME280;64266;48.798;44.756;2023-03-01T19:30:22;101386.25;;;0.64;59.16
75668;BME280;64266;48.798;44.756;2023-03-01T19:35:25;101389.41;;;0.58;59.31
75668;BME280;64266;48.798;44.756;2023-03-01T19:40:28;101412.91;;;0.77;60.30
75668;BME280;64266;48.798;44.756;2023-03-01T19:45:30;101368.91;;;0.43;60.01
75668;BME280;64266;48.798;44.756;2023-03-01T19:50:35;101422.22;;;0.60;59.51
75668;BME280;64266;48.798;44.756;2023-03-01T19:55:39;101409.03;;;0.52;60.70
75668;BME280;64266;48.798;44.756;2023-03-01T20:00:44;101425.38;;;0.54;60.69
75668;BME280;64266;48.798;44.756;2023-03-01T20:05:47;101436.75;;;0.43;61.13
75668;BME280;64266;48.798;44.756;2023-03-01T20:10:50;101444.56;;;0.43;62.01
75668;BME280;64266;48.798;44.756;2023-03-01T20:15:54;101440.69;;;0.28;60.51
75668;BME280;64266;48.798;44.756;2023-03-01T20:20:58;101445.50;;;0.23;61.98
75668;BME280;64266;48.798;44.756;2023-03-01T20:26:03;101456.06;;;0.31;62.42
75668;BME280;64266;48.798;44.756;2023-03-01T20:31:10;101431.56;;;0.04;60.85
75668;BME280;64266;48.798;44.756;2023-03-01T20:36:14;101466.38;;;0.23;60.85
75668;BME280;64266;48.798;44.756;2023-03-01T20:41:18;101452.84;;;-0.01;61.57
75668;BME280;64266;48.798;44.756;2023-03-01T20:46:23;101477.31;;;0.17;61.96
75668;BME280;64266;48.798;44.756;2023-03-01T20:51:28;101472.22;;;0.06;60.42
75668;BME280;64266;48.798;44.756;2023-03-01T20:56:32;101469.13;;;-0.09;61.42
75668;BME280;64266;48.798;44.756;2023-03-01T21:01:37;101476.69;;;-0.06;60.45
75668;BME280;64266;48.798;44.756;2023-03-01T21:06:41;101484.66;;;-0.07;60.12
75668;BME280;64266;48.798;44.756;2023-03-01T21:11:43;101479.03;;;-0.03;61.51
75668;BME280;64266;48.798;44.756;2023-03-01T21:16:47;101499.78;;;-0.01;60.92
75668;BME280;64266;48.798;44.756;2023-03-01T21:21:51;101494.00;;;-0.05;60.12
75668;BME280;64266;48.798;44.756;2023-03-01T21:26:55;101514.47;;;0.00;59.35
75668;BME280;64266;48.798;44.756;2023-03-01T21:31:57;101517.06;;;0.00;58.61
75668;BME280;64266;48.798;44.756;2023-03-01T21:37:00;101518.66;;;-0.09;57.87
75668;BME280;64266;48.798;44.756;2023-03-01T21:42:03;101532.44;;;0.03;57.55
75668;BME280;64266;48.798;44.756;2023-03-01T21:47:06;101525.66;;;-0.09;56.54
75668;BME280;64266;48.798;44.756;2023-03-01T21:52:10;101548.31;;;-0.10;56.45
75668;BME280;64266;48.798;44.756;2023-03-01T21:57:18;101564.44;;;0.05;56.17
75668;BME280;64266;48.798;44.756;2023-03-01T22:02:20;101548.00;;;-0.16;56.91
75668;BME280;64266;48.798;44.756;2023-03-01T22:07:23;101588.31;;;0.10;56.58
75668;BME280;64266;48.798;44.756;2023-03-01T22:12:25;101565.72;;;-0.10;55.75
75668;BME280;64266;48.798;44.756;2023-03-01T22:17:28;101594.25;;;-0.09;55.82
75668;BME280;64266;48.798;44.756;2023-03-01T22:22:31;101539.03;;;-0.44;56.23
75668;BME280;64266;48.798;44.756;2023-03-01T22:27:34;101575.81;;;-0.17;55.50
75668;BME280;64266;48.798;44.756;2023-03-01T22:32:38;101578.44;;;-0.17;54.64
75668;BME280;64266;48.798;44.756;2023-03-01T22:37:42;101577.84;;;-0.20;54.66
75668;BME280;64266;48.798;44.756;2023-03-01T22:42:45;101575.59;;;-0.34;54.58
75668;BME280;64266;48.798;44.756;2023-03-01T22:47:48;101540.81;;;-0.44;54.13
75668;BME280;64266;48.798;44.756;2023-03-01T22:52:51;101564.44;;;-0.36;54.96
75668;BME280;64266;48.798;44.756;2023-03-01T22:57:54;101564.84;;;-0.41;53.58
75668;BME280;64266;48.798;44.756;2023-03-01T23:02:57;101557.63;;;-0.48;54.13
75668;BME280;64266;48.798;44.756;2023-03-01T23:08:01;101544.19;;;-0.53;54.42
75668;BME280;64266;48.798;44.756;2023-03-01T23:13:04;101576.84;;;-0.49;53.57
75668;BME280;64266;48.798;44.756;2023-03-01T23:18:07;101573.34;;;-0.60;54.91
75668;BME280;64266;48.798;44.756;2023-03-01T23:23:10;101561.91;;;-0.68;54.12
75668;BME280;64266;48.798;44.756;2023-03-01T23:28:13;101572.16;;;-0.67;54.70
75668;BME280;64266;48.798;44.756;2023-03-01T23:33:16;101584.44;;;-0.58;54.55
75668;BME280;64266;48.798;44.756;2023-03-01T23:38:19;101580.47;;;-0.73;54.35
75668;BME280;64266;48.798;44.756;2023-03-01T23:43:22;101580.03;;;-0.78;54.35
75668;BME280;64266;48.798;44.756;2023-03-01T23:48:25;101575.31;;;-0.84;53.50
75668;BME280;64266;48.798;44.756;2023-03-01T23:53:28;101576.50;;;-0.88;54.29
75668;BME280;64266;48.798;44.756;2023-03-01T23:58:31;101553.38;;;-1.02;55.06
